sensor_id;sensor_type;location;lat;lon;timestamp;temperature;humidity
65421;DHT22;52028;50.658;14.004;2023-02-01T00:00:28;5.93;68.52
65421;DHT22;52028;50.658;14.004;2023-02-01T00:02:54;5.94;67.96
65421;DHT22;52028;50.658;14.004;2023-02-01T00:05:19;5.93;68.02
65421;DHT22;52028;50.658;14.004;2023-02-01T00:07:47;6.06;67.25
65421;DHT22;52028;50.658;14.004;2023-02-01T00:10:13;5.97;67.64
65421;DHT22;52028;50.658;14.004;2023-02-01T00:12:38;5.97;67.94
65421;DHT22;52028;50.658;14.004;2023-02-01T00:15:04;5.76;68.86
65421;DHT22;52028;50.658;14.004;2023-02-01T00:17:29;5.77;68.72
65421;DHT22;52028;50.658;14.004;2023-02-01T00:19:54;5.90;67.53
65421;DHT22;52028;50.658;14.004;2023-02-01T00:22:20;6.06;66.31
65421;DHT22;52028;50.658;14.004;2023-02-01T00:24:45;6.07;66.36
65421;DHT22;52028;50.658;14.004;2023-02-01T00:27:10;6.15;66.21
65421;DHT22;52028;50.658;14.004;2023-02-01T00:29:38;6.07;67.34
65421;DHT22;52028;50.658;14.004;2023-02-01T00:32:03;6.07;67.84
65421;DHT22;52028;50.658;14.004;2023-02-01T00:34:29;6.04;68.35
65421;DHT22;52028;50.658;14.004;2023-02-01T00:36:54;6.13;68.33
65421;DHT22;52028;50.658;14.004;2023-02-01T00:39:19;6.06;68.82
65421;DHT22;52028;50.658;14.004;2023-02-01T00:41:45;6.06;68.45
65421;DHT22;52028;50.658;14.004;2023-02-01T00:44:10;6.04;67.70
65421;DHT22;52028;50.658;14.004;2023-02-01T00:46:36;5.97;68.06
65421;DHT22;52028;50.658;14.004;2023-02-01T00:49:01;5.94;67.76
65421;DHT22;52028;50.658;14.004;2023-02-01T00:51:28;5.89;67.72
65421;DHT22;52028;50.658;14.004;2023-02-01T00:53:54;5.93;67.11
65421;DHT22;52028;50.658;14.004;2023-02-01T00:56:20;5.93;66.50
65421;DHT22;52028;50.658;14.004;2023-02-01T00:58:45;5.87;66.59
65421;DHT22;52028;50.658;14.004;2023-02-01T01:01:19;5.96;65.15
65421;DHT22;52028;50.658;14.004;2023-02-01T01:03:48;5.91;65.65
65421;DHT22;52028;50.658;14.004;2023-02-01T01:06:16;5.96;65.26
65421;DHT22;52028;50.658;14.004;2023-02-01T01:08:42;6.04;64.66
65421;DHT22;52028;50.658;14.004;2023-02-01T01:11:11;6.10;65.03
65421;DHT22;52028;50.658;14.004;2023-02-01T01:13:37;6.03;65.49
65421;DHT22;52028;50.658;14.004;2023-02-01T01:16:04;6.03;65.86
65421;DHT22;52028;50.658;14.004;2023-02-01T01:18:30;6.03;65.89
65421;DHT22;52028;50.658;14.004;2023-02-01T01:20:56;6.00;66.07
65421;DHT22;52028;50.658;14.004;2023-02-01T01:23:21;5.93;66.66
65421;DHT22;52028;50.658;14.004;2023-02-01T01:25:47;5.81;67.23
65421;DHT22;52028;50.658;14.004;2023-02-01T01:28:12;5.70;68.06
65421;DHT22;52028;50.658;14.004;2023-02-01T01:30:38;5.80;66.19
65421;DHT22;52028;50.658;14.004;2023-02-01T01:33:03;5.80;66.90
65421;DHT22;52028;50.658;14.004;2023-02-01T01:35:32;5.76;66.77
65421;DHT22;52028;50.658;14.004;2023-02-01T01:37:59;5.69;67.26
65421;DHT22;52028;50.658;14.004;2023-02-01T01:40:25;5.59;67.05
65421;DHT22;52028;50.658;14.004;2023-02-01T01:42:50;5.53;67.28
65421;DHT22;52028;50.658;14.004;2023-02-01T01:45:33;5.45;67.48
65421;DHT22;52028;50.658;14.004;2023-02-01T01:48:03;5.51;66.26
65421;DHT22;52028;50.658;14.004;2023-02-01T01:50:37;5.48;66.40
65421;DHT22;52028;50.658;14.004;2023-02-01T01:53:06;5.49;65.71
65421;DHT22;52028;50.658;14.004;2023-02-01T01:55:35;5.58;65.30
65421;DHT22;52028;50.658;14.004;2023-02-01T01:58:06;5.65;65.17
65421;DHT22;52028;50.658;14.004;2023-02-01T02:00:33;5.66;65.27
65421;DHT22;52028;50.658;14.004;2023-02-01T02:03:04;5.66;65.27
65421;DHT22;52028;50.658;14.004;2023-02-01T02:05:32;5.74;65.33
65421;DHT22;52028;50.658;14.004;2023-02-01T02:07:59;5.65;66.03
65421;DHT22;52028;50.658;14.004;2023-02-01T02:10:28;5.69;66.04
65421;DHT22;52028;50.658;14.004;2023-02-01T02:13:13;5.63;66.37
65421;DHT22;52028;50.658;14.004;2023-02-01T02:15:45;5.60;66.77
65421;DHT22;52028;50.658;14.004;2023-02-01T02:27:30;5.60;65.85
65421;DHT22;52028;50.658;14.004;2023-02-01T02:35:29;5.69;64.61
65421;DHT22;52028;50.658;14.004;2023-02-01T02:38:23;5.60;65.95
65421;DHT22;52028;50.658;14.004;2023-02-01T02:44:42;5.51;66.92
65421;DHT22;52028;50.658;14.004;2023-02-01T02:47:42;5.51;67.37
65421;DHT22;52028;50.658;14.004;2023-02-01T02:53:48;5.58;67.60
65421;DHT22;52028;50.658;14.004;2023-02-01T02:56:35;5.59;67.28
65421;DHT22;52028;50.658;14.004;2023-02-01T02:59:23;5.58;67.51
65421;DHT22;52028;50.658;14.004;2023-02-01T03:02:08;5.53;67.61
65421;DHT22;52028;50.658;14.004;2023-02-01T03:04:53;5.52;67.52
65421;DHT22;52028;50.658;14.004;2023-02-01T03:10:35;5.49;67.76
65421;DHT22;52028;50.658;14.004;2023-02-01T03:13:14;5.52;68.11
65421;DHT22;52028;50.658;14.004;2023-02-01T03:15:45;5.49;67.46
65421;DHT22;52028;50.658;14.004;2023-02-01T03:21:09;5.34;68.12
65421;DHT22;52028;50.658;14.004;2023-02-01T03:23:36;5.46;67.17
65421;DHT22;52028;50.658;14.004;2023-02-01T03:26:05;5.56;66.80
65421;DHT22;52028;50.658;14.004;2023-02-01T03:28:34;5.60;66.61
65421;DHT22;52028;50.658;14.004;2023-02-01T03:31:01;5.70;66.13
65421;DHT22;52028;50.658;14.004;2023-02-01T03:33:28;5.73;65.79
65421;DHT22;52028;50.658;14.004;2023-02-01T03:36:27;5.81;65.73
65421;DHT22;52028;50.658;14.004;2023-02-01T03:39:15;5.85;65.43
65421;DHT22;52028;50.658;14.004;2023-02-01T03:41:51;5.79;66.02
65421;DHT22;52028;50.658;14.004;2023-02-01T03:49:36;5.76;65.86
65421;DHT22;52028;50.658;14.004;2023-02-01T03:52:05;5.67;66.37
65421;DHT22;52028;50.658;14.004;2023-02-01T03:54:32;5.69;66.57
65421;DHT22;52028;50.658;14.004;2023-02-01T03:57:01;5.77;66.25
65421;DHT22;52028;50.658;14.004;2023-02-01T03:59:28;5.81;66.08
65421;DHT22;52028;50.658;14.004;2023-02-01T04:01:53;5.94;65.49
65421;DHT22;52028;50.658;14.004;2023-02-01T04:04:18;5.87;65.83
65421;DHT22;52028;50.658;14.004;2023-02-01T04:06:50;5.91;66.09
65421;DHT22;52028;50.658;14.004;2023-02-01T04:09:16;5.86;66.23
65421;DHT22;52028;50.658;14.004;2023-02-01T04:11:41;5.87;66.15
65421;DHT22;52028;50.658;14.004;2023-02-01T04:14:07;5.81;66.48
65421;DHT22;52028;50.658;14.004;2023-02-01T04:16:32;5.74;66.65
65421;DHT22;52028;50.658;14.004;2023-02-01T04:18:58;5.81;66.25
65421;DHT22;52028;50.658;14.004;2023-02-01T04:21:25;5.89;66.07
65421;DHT22;52028;50.658;14.004;2023-02-01T04:23:50;5.85;66.01
65421;DHT22;52028;50.658;14.004;2023-02-01T04:26:16;5.85;66.08
65421;DHT22;52028;50.658;14.004;2023-02-01T04:28:42;5.89;65.91
65421;DHT22;52028;50.658;14.004;2023-02-01T04:31:07;5.80;66.52
65421;DHT22;52028;50.658;14.004;2023-02-01T04:33:32;5.90;65.79
65421;DHT22;52028;50.658;14.004;2023-02-01T04:35:58;5.90;65.79
65421;DHT22;52028;50.658;14.004;2023-02-01T04:38:23;5.85;66.23
65421;DHT22;52028;50.658;14.004;2023-02-01T04:40:48;5.86;66.07
65421;DHT22;52028;50.658;14.004;2023-02-01T04:43:15;5.80;66.07
65421;DHT22;52028;50.658;14.004;2023-02-01T04:45:40;5.79;66.23
65421;DHT22;52028;50.658;14.004;2023-02-01T04:48:05;5.87;65.71
65421;DHT22;52028;50.658;14.004;2023-02-01T04:50:31;5.86;65.77
65421;DHT22;52028;50.658;14.004;2023-02-01T04:52:56;5.89;65.76
65421;DHT22;52028;50.658;14.004;2023-02-01T04:55:21;5.83;65.67
65421;DHT22;52028;50.658;14.004;2023-02-01T04:57:47;5.72;66.15
65421;DHT22;52028;50.658;14.004;2023-02-01T05:00:12;5.72;66.19
65421;DHT22;52028;50.658;14.004;2023-02-01T05:02:38;5.63;66.54
65421;DHT22;52028;50.658;14.004;2023-02-01T05:05:04;5.63;66.52
65421;DHT22;52028;50.658;14.004;2023-02-01T05:07:29;5.60;66.03
65421;DHT22;52028;50.658;14.004;2023-02-01T05:09:55;5.63;65.90
65421;DHT22;52028;50.658;14.004;2023-02-01T05:12:20;5.66;65.80
65421;DHT22;52028;50.658;14.004;2023-02-01T05:15:04;5.73;65.30
65421;DHT22;52028;50.658;14.004;2023-02-01T05:17:30;5.79;64.86
65421;DHT22;52028;50.658;14.004;2023-02-01T05:19:55;5.77;65.31
65421;DHT22;52028;50.658;14.004;2023-02-01T05:22:20;5.85;64.83
65421;DHT22;52028;50.658;14.004;2023-02-01T05:24:46;5.81;64.94
65421;DHT22;52028;50.658;14.004;2023-02-01T05:27:11;5.77;65.38
65421;DHT22;52028;50.658;14.004;2023-02-01T05:29:36;5.76;65.02
65421;DHT22;52028;50.658;14.004;2023-02-01T05:32:02;5.76;65.35
65421;DHT22;52028;50.658;14.004;2023-02-01T05:34:27;5.80;65.58
65421;DHT22;52028;50.658;14.004;2023-02-01T05:36:53;5.74;65.63
65421;DHT22;52028;50.658;14.004;2023-02-01T05:39:18;5.86;65.37
65421;DHT22;52028;50.658;14.004;2023-02-01T05:41:44;5.80;66.04
65421;DHT22;52028;50.658;14.004;2023-02-01T05:44:10;5.74;66.48
65421;DHT22;52028;50.658;14.004;2023-02-01T05:46:36;5.76;66.61
65421;DHT22;52028;50.658;14.004;2023-02-01T05:49:01;5.69;66.95
65421;DHT22;52028;50.658;14.004;2023-02-01T05:51:26;5.69;67.17
65421;DHT22;52028;50.658;14.004;2023-02-01T05:53:52;5.62;67.48
65421;DHT22;52028;50.658;14.004;2023-02-01T05:56:17;5.66;67.27
65421;DHT22;52028;50.658;14.004;2023-02-01T05:58:43;5.60;67.89
65421;DHT22;52028;50.658;14.004;2023-02-01T06:01:08;5.52;68.53
65421;DHT22;52028;50.658;14.004;2023-02-01T06:03:33;5.51;68.95
65421;DHT22;52028;50.658;14.004;2023-02-01T06:05:59;5.41;69.23
65421;DHT22;52028;50.658;14.004;2023-02-01T06:08:26;5.41;69.40
65421;DHT22;52028;50.658;14.004;2023-02-01T06:10:57;5.44;69.40
65421;DHT22;52028;50.658;14.004;2023-02-01T06:13:23;5.34;69.61
65421;DHT22;52028;50.658;14.004;2023-02-01T06:15:48;5.35;69.87
65421;DHT22;52028;50.658;14.004;2023-02-01T06:18:13;5.31;70.62
65421;DHT22;52028;50.658;14.004;2023-02-01T06:20:40;5.30;71.12
65421;DHT22;52028;50.658;14.004;2023-02-01T06:23:06;5.21;71.73
65421;DHT22;52028;50.658;14.004;2023-02-01T06:25:31;5.16;72.11
65421;DHT22;52028;50.658;14.004;2023-02-01T06:28:00;5.07;72.54
65421;DHT22;52028;50.658;14.004;2023-02-01T06:30:25;5.11;72.43
65421;DHT22;52028;50.658;14.004;2023-02-01T06:32:51;5.14;72.31
65421;DHT22;52028;50.658;14.004;2023-02-01T06:35:18;5.20;72.11
65421;DHT22;52028;50.658;14.004;2023-02-01T06:37:44;5.27;71.99
65421;DHT22;52028;50.658;14.004;2023-02-01T06:40:10;5.28;71.67
65421;DHT22;52028;50.658;14.004;2023-02-01T06:42:36;5.34;71.61
65421;DHT22;52028;50.658;14.004;2023-02-01T06:45:01;5.41;71.62
65421;DHT22;52028;50.658;14.004;2023-02-01T06:47:27;5.41;71.98
65421;DHT22;52028;50.658;14.004;2023-02-01T06:49:53;5.36;72.68
65421;DHT22;52028;50.658;14.004;2023-02-01T06:52:18;5.31;73.95
65421;DHT22;52028;50.658;14.004;2023-02-01T06:54:43;5.03;76.02
65421;DHT22;52028;50.658;14.004;2023-02-01T06:57:08;4.79;78.52
65421;DHT22;52028;50.658;14.004;2023-02-01T06:59:34;4.48;80.53
65421;DHT22;52028;50.658;14.004;2023-02-01T07:01:59;4.22;82.44
65421;DHT22;52028;50.658;14.004;2023-02-01T07:04:24;4.10;83.38
65421;DHT22;52028;50.658;14.004;2023-02-01T07:06:50;4.04;83.71
65421;DHT22;52028;50.658;14.004;2023-02-01T07:09:15;4.00;83.57
65421;DHT22;52028;50.658;14.004;2023-02-01T07:11:41;3.96;84.16
65421;DHT22;52028;50.658;14.004;2023-02-01T07:14:11;4.06;83.42
65421;DHT22;52028;50.658;14.004;2023-02-01T07:16:36;3.94;84.01
65421;DHT22;52028;50.658;14.004;2023-02-01T07:19:02;4.09;83.21
65421;DHT22;52028;50.658;14.004;2023-02-01T07:21:28;4.27;81.50
65421;DHT22;52028;50.658;14.004;2023-02-01T07:23:54;4.33;80.68
65421;DHT22;52028;50.658;14.004;2023-02-01T07:26:21;4.36;80.72
65421;DHT22;52028;50.658;14.004;2023-02-01T07:28:47;4.42;80.15
65421;DHT22;52028;50.658;14.004;2023-02-01T07:31:14;4.49;79.84
65421;DHT22;52028;50.658;14.004;2023-02-01T07:33:48;4.55;79.55
65421;DHT22;52028;50.658;14.004;2023-02-01T07:36:17;4.52;79.82
65421;DHT22;52028;50.658;14.004;2023-02-01T07:38:43;4.71;78.52
65421;DHT22;52028;50.658;14.004;2023-02-01T07:41:08;4.68;78.61
65421;DHT22;52028;50.658;14.004;2023-02-01T07:43:34;4.79;81.34
65421;DHT22;52028;50.658;14.004;2023-02-01T07:46:01;4.80;78.03
65421;DHT22;52028;50.658;14.004;2023-02-01T07:48:27;4.93;76.83
65421;DHT22;52028;50.658;14.004;2023-02-01T07:51:01;4.97;75.50
65421;DHT22;52028;50.658;14.004;2023-02-01T07:53:26;5.13;74.69
65421;DHT22;52028;50.658;14.004;2023-02-01T07:55:52;5.09;75.20
65421;DHT22;52028;50.658;14.004;2023-02-01T07:58:17;5.10;74.85
65421;DHT22;52028;50.658;14.004;2023-02-01T08:00:42;5.07;75.09
65421;DHT22;52028;50.658;14.004;2023-02-01T08:03:26;5.06;75.17
65421;DHT22;52028;50.658;14.004;2023-02-01T08:05:55;5.18;74.44
65421;DHT22;52028;50.658;14.004;2023-02-01T08:08:20;5.23;74.47
65421;DHT22;52028;50.658;14.004;2023-02-01T08:10:46;5.23;74.34
65421;DHT22;52028;50.658;14.004;2023-02-01T08:13:11;5.21;74.08
65421;DHT22;52028;50.658;14.004;2023-02-01T08:15:36;5.35;73.13
65421;DHT22;52028;50.658;14.004;2023-02-01T08:18:02;5.31;74.01
65421;DHT22;52028;50.658;14.004;2023-02-01T08:20:27;5.24;74.28
65421;DHT22;52028;50.658;14.004;2023-02-01T08:22:54;5.27;73.76
65421;DHT22;52028;50.658;14.004;2023-02-01T08:25:20;5.31;73.67
65421;DHT22;52028;50.658;14.004;2023-02-01T08:27:45;5.30;74.04
65421;DHT22;52028;50.658;14.004;2023-02-01T08:30:11;5.34;73.50
65421;DHT22;52028;50.658;14.004;2023-02-01T08:32:37;5.48;73.24
65421;DHT22;52028;50.658;14.004;2023-02-01T08:35:03;5.45;73.23
65421;DHT22;52028;50.658;14.004;2023-02-01T08:37:29;5.52;73.17
65421;DHT22;52028;50.658;14.004;2023-02-01T08:39:54;5.41;73.56
65421;DHT22;52028;50.658;14.004;2023-02-01T08:42:20;5.30;74.18
65421;DHT22;52028;50.658;14.004;2023-02-01T08:45:05;5.14;74.92
65421;DHT22;52028;50.658;14.004;2023-02-01T08:47:31;5.10;75.73
65421;DHT22;52028;50.658;14.004;2023-02-01T08:49:56;5.11;75.68
65421;DHT22;52028;50.658;14.004;2023-02-01T08:52:22;5.20;75.59
65421;DHT22;52028;50.658;14.004;2023-02-01T08:54:47;5.35;74.63
65421;DHT22;52028;50.658;14.004;2023-02-01T08:57:12;5.35;74.16
65421;DHT22;52028;50.658;14.004;2023-02-01T08:59:38;5.42;74.14
65421;DHT22;52028;50.658;14.004;2023-02-01T09:02:03;5.38;74.30
65421;DHT22;52028;50.658;14.004;2023-02-01T09:04:29;5.52;73.14
65421;DHT22;52028;50.658;14.004;2023-02-01T09:06:54;5.42;74.01
65421;DHT22;52028;50.658;14.004;2023-02-01T09:09:21;5.45;74.18
65421;DHT22;52028;50.658;14.004;2023-02-01T09:11:47;5.30;75.10
65421;DHT22;52028;50.658;14.004;2023-02-01T09:14:12;5.27;75.05
65421;DHT22;52028;50.658;14.004;2023-02-01T09:16:37;5.28;75.26
65421;DHT22;52028;50.658;14.004;2023-02-01T09:19:03;5.27;75.53
65421;DHT22;52028;50.658;14.004;2023-02-01T09:21:28;5.18;76.00
65421;DHT22;52028;50.658;14.004;2023-02-01T09:23:54;5.31;75.32
65421;DHT22;52028;50.658;14.004;2023-02-01T09:26:19;5.31;75.43
65421;DHT22;52028;50.658;14.004;2023-02-01T09:28:45;5.23;76.04
65421;DHT22;52028;50.658;14.004;2023-02-01T09:31:10;5.17;76.37
65421;DHT22;52028;50.658;14.004;2023-02-01T09:33:36;5.28;76.24
65421;DHT22;52028;50.658;14.004;2023-02-01T09:36:04;5.28;75.95
65421;DHT22;52028;50.658;14.004;2023-02-01T09:38:30;5.28;76.93
65421;DHT22;52028;50.658;14.004;2023-02-01T09:40:56;5.30;76.04
65421;DHT22;52028;50.658;14.004;2023-02-01T09:43:50;5.24;76.30
65421;DHT22;52028;50.658;14.004;2023-02-01T09:46:23;5.21;76.30
65421;DHT22;52028;50.658;14.004;2023-02-01T09:48:53;5.16;77.53
65421;DHT22;52028;50.658;14.004;2023-02-01T09:51:23;5.16;76.89
65421;DHT22;52028;50.658;14.004;2023-02-01T09:54:04;5.13;77.21
65421;DHT22;52028;50.658;14.004;2023-02-01T09:56:35;5.10;77.30
65421;DHT22;52028;50.658;14.004;2023-02-01T10:01:35;5.09;77.60
65421;DHT22;52028;50.658;14.004;2023-02-01T10:04:05;4.87;80.39
65421;DHT22;52028;50.658;14.004;2023-02-01T10:23:54;3.89;85.49
65421;DHT22;52028;50.658;14.004;2023-02-01T10:26:25;3.79;87.05
65421;DHT22;52028;50.658;14.004;2023-02-01T10:28:53;3.64;87.37
65421;DHT22;52028;50.658;14.004;2023-02-01T10:31:23;3.51;88.32
65421;DHT22;52028;50.658;14.004;2023-02-01T10:33:53;3.44;88.59
65421;DHT22;52028;50.658;14.004;2023-02-01T10:36:40;3.52;89.65
65421;DHT22;52028;50.658;14.004;2023-02-01T10:39:08;3.61;89.89
65421;DHT22;52028;50.658;14.004;2023-02-01T10:41:38;3.58;89.60
65421;DHT22;52028;50.658;14.004;2023-02-01T10:44:14;3.64;90.00
65421;DHT22;52028;50.658;14.004;2023-02-01T10:46:40;3.72;90.07
65421;DHT22;52028;50.658;14.004;2023-02-01T10:49:13;3.76;89.92
65421;DHT22;52028;50.658;14.004;2023-02-01T10:52:20;3.85;89.75
65421;DHT22;52028;50.658;14.004;2023-02-01T10:54:48;3.94;89.61
65421;DHT22;52028;50.658;14.004;2023-02-01T10:57:24;4.00;89.31
65421;DHT22;52028;50.658;14.004;2023-02-01T10:59:51;4.07;88.97
65421;DHT22;52028;50.658;14.004;2023-02-01T11:02:31;4.17;88.56
65421;DHT22;52028;50.658;14.004;2023-02-01T11:05:07;4.17;88.38
65421;DHT22;52028;50.658;14.004;2023-02-01T11:07:39;4.17;87.90
65421;DHT22;52028;50.658;14.004;2023-02-01T11:10:05;4.20;87.75
65421;DHT22;52028;50.658;14.004;2023-02-01T11:12:36;4.25;87.47
65421;DHT22;52028;50.658;14.004;2023-02-01T11:17:40;4.42;87.24
65421;DHT22;52028;50.658;14.004;2023-02-01T11:20:34;4.40;86.76
65421;DHT22;52028;50.658;14.004;2023-02-01T11:23:02;4.47;86.24
65421;DHT22;52028;50.658;14.004;2023-02-01T11:25:28;4.68;83.76
65421;DHT22;52028;50.658;14.004;2023-02-01T11:27:54;4.79;81.28
65421;DHT22;52028;50.658;14.004;2023-02-01T11:30:37;5.06;78.80
65421;DHT22;52028;50.658;14.004;2023-02-01T11:33:05;5.49;75.64
65421;DHT22;52028;50.658;14.004;2023-02-01T11:35:30;5.73;73.34
65421;DHT22;52028;50.658;14.004;2023-02-01T11:37:59;5.86;72.88
65421;DHT22;52028;50.658;14.004;2023-02-01T11:43:01;5.81;71.99
65421;DHT22;52028;50.658;14.004;2023-02-01T11:45:33;5.93;72.26
65421;DHT22;52028;50.658;14.004;2023-02-01T11:48:08;6.01;71.96
65421;DHT22;52028;50.658;14.004;2023-02-01T11:50:47;6.14;71.38
65421;DHT22;52028;50.658;14.004;2023-02-01T11:54:02;6.21;71.78
65421;DHT22;52028;50.658;14.004;2023-02-01T11:56:40;6.25;70.50
65421;DHT22;52028;50.658;14.004;2023-02-01T11:59:13;6.56;69.75
65421;DHT22;52028;50.658;14.004;2023-02-01T12:02:11;6.81;69.35
65421;DHT22;52028;50.658;14.004;2023-02-01T12:07:31;7.78;66.39
65421;DHT22;52028;50.658;14.004;2023-02-01T12:10:25;8.05;63.15
65421;DHT22;52028;50.658;14.004;2023-02-01T12:15:56;8.52;61.51
65421;DHT22;52028;50.658;14.004;2023-02-01T12:21:19;8.18;62.87
65421;DHT22;52028;50.658;14.004;2023-02-01T12:26:58;8.11;63.77
65421;DHT22;52028;50.658;14.004;2023-02-01T12:32:09;7.62;64.68
65421;DHT22;52028;50.658;14.004;2023-02-01T12:42:54;7.78;63.52
65421;DHT22;52028;50.658;14.004;2023-02-01T12:46:03;7.80;63.03
65421;DHT22;52028;50.658;14.004;2023-02-01T12:48:47;7.86;62.90
65421;DHT22;52028;50.658;14.004;2023-02-01T12:51:18;8.09;62.95
65421;DHT22;52028;50.658;14.004;2023-02-01T12:53:50;8.39;62.77
65421;DHT22;52028;50.658;14.004;2023-02-01T12:56:26;8.21;62.00
65421;DHT22;52028;50.658;14.004;2023-02-01T12:58:56;7.88;62.78
65421;DHT22;52028;50.658;14.004;2023-02-01T13:01:42;7.56;64.25
65421;DHT22;52028;50.658;14.004;2023-02-01T13:04:54;7.07;66.20
65421;DHT22;52028;50.658;14.004;2023-02-01T13:07:28;6.96;66.74
65421;DHT22;52028;50.658;14.004;2023-02-01T13:10:20;6.59;68.51
65421;DHT22;52028;50.658;14.004;2023-02-01T13:12:54;6.59;69.74
65421;DHT22;52028;50.658;14.004;2023-02-01T13:15:25;6.32;71.20
65421;DHT22;52028;50.658;14.004;2023-02-01T13:17:54;6.26;70.97
65421;DHT22;52028;50.658;14.004;2023-02-01T13:20:31;6.29;70.85
65421;DHT22;52028;50.658;14.004;2023-02-01T13:25:52;6.36;70.43
65421;DHT22;52028;50.658;14.004;2023-02-01T13:28:26;6.46;70.26
65421;DHT22;52028;50.658;14.004;2023-02-01T13:39:24;6.98;68.44
65421;DHT22;52028;50.658;14.004;2023-02-01T13:41:53;7.03;68.49
65421;DHT22;52028;50.658;14.004;2023-02-01T13:44:27;7.04;68.03
65421;DHT22;52028;50.658;14.004;2023-02-01T13:46:56;6.91;68.35
65421;DHT22;52028;50.658;14.004;2023-02-01T13:49:28;6.87;68.43
65421;DHT22;52028;50.658;14.004;2023-02-01T13:51:56;6.86;67.94
65421;DHT22;52028;50.658;14.004;2023-02-01T13:54:30;6.91;67.20
65421;DHT22;52028;50.658;14.004;2023-02-01T13:56:56;6.96;67.84
65421;DHT22;52028;50.658;14.004;2023-02-01T14:05:06;7.22;66.34
65421;DHT22;52028;50.658;14.004;2023-02-01T14:07:33;7.07;65.92
65421;DHT22;52028;50.658;14.004;2023-02-01T14:09:58;7.08;66.22
65421;DHT22;52028;50.658;14.004;2023-02-01T14:12:44;6.97;66.62
65421;DHT22;52028;50.658;14.004;2023-02-01T14:15:27;6.87;66.61
65421;DHT22;52028;50.658;14.004;2023-02-01T14:17:53;6.84;66.02
65421;DHT22;52028;50.658;14.004;2023-02-01T14:20:44;6.83;67.02
65421;DHT22;52028;50.658;14.004;2023-02-01T14:23:14;6.86;65.90
65421;DHT22;52028;50.658;14.004;2023-02-01T14:25:41;6.81;66.38
65421;DHT22;52028;50.658;14.004;2023-02-01T14:28:45;6.77;65.87
65421;DHT22;52028;50.658;14.004;2023-02-01T14:31:14;6.70;66.79
65421;DHT22;52028;50.658;14.004;2023-02-01T14:33:41;6.70;66.82
65421;DHT22;52028;50.658;14.004;2023-02-01T14:36:11;6.73;66.52
65421;DHT22;52028;50.658;14.004;2023-02-01T14:38:38;6.72;67.01
65421;DHT22;52028;50.658;14.004;2023-02-01T14:41:31;6.80;65.05
65421;DHT22;52028;50.658;14.004;2023-02-01T14:49:32;6.75;66.44
65421;DHT22;52028;50.658;14.004;2023-02-01T14:51:59;6.76;66.44
65421;DHT22;52028;50.658;14.004;2023-02-01T14:54:25;6.70;66.61
65421;DHT22;52028;50.658;14.004;2023-02-01T14:56:52;6.53;67.81
65421;DHT22;52028;50.658;14.004;2023-02-01T14:59:20;6.26;69.93
65421;DHT22;52028;50.658;14.004;2023-02-01T15:01:55;6.08;71.21
65421;DHT22;52028;50.658;14.004;2023-02-01T15:04:26;6.06;71.40
65421;DHT22;52028;50.658;14.004;2023-02-01T15:06:57;6.04;71.25
65421;DHT22;52028;50.658;14.004;2023-02-01T15:09:35;6.07;71.34
65421;DHT22;52028;50.658;14.004;2023-02-01T15:14:42;5.96;72.40
65421;DHT22;52028;50.658;14.004;2023-02-01T15:17:25;5.98;72.41
65421;DHT22;52028;50.658;14.004;2023-02-01T15:19:59;6.03;72.38
65421;DHT22;52028;50.658;14.004;2023-02-01T15:22:26;6.03;72.47
65421;DHT22;52028;50.658;14.004;2023-02-01T15:24:57;5.93;72.96
65421;DHT22;52028;50.658;14.004;2023-02-01T15:27:22;5.89;73.03
65421;DHT22;52028;50.658;14.004;2023-02-01T15:29:48;5.90;73.05
65421;DHT22;52028;50.658;14.004;2023-02-01T15:32:33;5.96;72.66
65421;DHT22;52028;50.658;14.004;2023-02-01T15:34:59;5.90;73.00
65421;DHT22;52028;50.658;14.004;2023-02-01T15:37:26;5.97;72.38
65421;DHT22;52028;50.658;14.004;2023-02-01T15:42:52;6.04;71.44
65421;DHT22;52028;50.658;14.004;2023-02-01T15:45:20;6.13;71.18
65421;DHT22;52028;50.658;14.004;2023-02-01T15:47:50;6.07;71.67
65421;DHT22;52028;50.658;14.004;2023-02-01T15:50:17;6.14;71.40
65421;DHT22;52028;50.658;14.004;2023-02-01T15:52:46;6.10;71.58
65421;DHT22;52028;50.658;14.004;2023-02-01T15:55:29;6.10;70.95
65421;DHT22;52028;50.658;14.004;2023-02-01T15:57:59;6.18;70.48
65421;DHT22;52028;50.658;14.004;2023-02-01T16:00:28;6.11;70.79
65421;DHT22;52028;50.658;14.004;2023-02-01T16:02:57;6.03;71.16
65421;DHT22;52028;50.658;14.004;2023-02-01T16:08:21;5.79;72.37
65421;DHT22;52028;50.658;14.004;2023-02-01T16:10:49;5.79;72.38
65421;DHT22;52028;50.658;14.004;2023-02-01T16:13:16;5.77;72.67
65421;DHT22;52028;50.658;14.004;2023-02-01T16:15:42;5.79;72.73
65421;DHT22;52028;50.658;14.004;2023-02-01T16:18:08;5.67;73.48
65421;DHT22;52028;50.658;14.004;2023-02-01T16:20:34;5.65;73.52
65421;DHT22;52028;50.658;14.004;2023-02-01T16:23:01;5.74;72.73
65421;DHT22;52028;50.658;14.004;2023-02-01T16:25:27;5.66;73.80
65421;DHT22;52028;50.658;14.004;2023-02-01T16:27:52;5.39;75.76
65421;DHT22;52028;50.658;14.004;2023-02-01T16:30:18;5.10;77.77
65421;DHT22;52028;50.658;14.004;2023-02-01T16:32:48;4.87;79.11
65421;DHT22;52028;50.658;14.004;2023-02-01T16:35:24;4.73;79.42
65421;DHT22;52028;50.658;14.004;2023-02-01T16:37:50;4.68;80.05
65421;DHT22;52028;50.658;14.004;2023-02-01T16:40:17;4.59;79.56
65421;DHT22;52028;50.658;14.004;2023-02-01T16:42:45;4.58;79.48
65421;DHT22;52028;50.658;14.004;2023-02-01T16:45:11;4.71;79.20
65421;DHT22;52028;50.658;14.004;2023-02-01T16:47:38;4.73;78.88
65421;DHT22;52028;50.658;14.004;2023-02-01T16:50:15;4.84;76.95
65421;DHT22;52028;50.658;14.004;2023-02-01T16:52:41;4.80;77.44
65421;DHT22;52028;50.658;14.004;2023-02-01T16:55:13;4.93;76.69
65421;DHT22;52028;50.658;14.004;2023-02-01T16:57:38;5.10;75.23
65421;DHT22;52028;50.658;14.004;2023-02-01T17:00:04;5.13;75.06
65421;DHT22;52028;50.658;14.004;2023-02-01T17:02:30;5.28;74.44
65421;DHT22;52028;50.658;14.004;2023-02-01T17:04:56;5.39;73.83
65421;DHT22;52028;50.658;14.004;2023-02-01T17:07:21;5.46;72.70
65421;DHT22;52028;50.658;14.004;2023-02-01T17:09:47;5.60;72.74
65421;DHT22;52028;50.658;14.004;2023-02-01T17:12:28;5.69;71.68
65421;DHT22;52028;50.658;14.004;2023-02-01T17:14:54;5.69;71.51
65421;DHT22;52028;50.658;14.004;2023-02-01T17:17:20;5.77;71.03
65421;DHT22;52028;50.658;14.004;2023-02-01T17:19:49;5.74;71.56
65421;DHT22;52028;50.658;14.004;2023-02-01T17:22:22;5.76;72.07
65421;DHT22;52028;50.658;14.004;2023-02-01T17:24:47;5.77;72.28
65421;DHT22;52028;50.658;14.004;2023-02-01T17:27:13;5.77;72.39
65421;DHT22;52028;50.658;14.004;2023-02-01T17:29:39;5.77;72.70
65421;DHT22;52028;50.658;14.004;2023-02-01T17:32:13;5.63;74.90
65421;DHT22;52028;50.658;14.004;2023-02-01T17:34:40;5.18;79.14
65421;DHT22;52028;50.658;14.004;2023-02-01T17:37:22;4.42;85.07